createdAt,value
2022-10-30T00:00:41.840Z,6.46
2022-10-30T00:03:12.153Z,6.69
2022-10-30T00:05:41.502Z,6.69
2022-10-30T00:08:11.100Z,6.09
2022-10-30T00:10:38.553Z,6.22
2022-10-30T00:13:07.413Z,6.13
2022-10-30T00:15:35.162Z,6.87
2022-10-30T00:18:02.998Z,6.71
2022-10-30T00:20:30.514Z,6.51
2022-10-30T00:22:57.800Z,6.69
2022-10-30T00:25:25.300Z,6.46
2022-10-30T00:27:52.358Z,6.20
2022-10-30T00:30:20.877Z,5.85
2022-10-30T00:32:47.880Z,5.89
2022-10-30T00:35:15.033Z,5.49
2022-10-30T00:37:42.113Z,5.64
2022-10-30T00:40:14.113Z,5.90
2022-10-30T00:42:41.126Z,6.15
2022-10-30T00:45:12.520Z,5.85
2022-10-30T00:47:46.494Z,6.16
2022-10-30T00:50:21.804Z,5.84
2022-10-30T00:52:53.793Z,5.87
2022-10-30T00:55:26.796Z,6.01
2022-10-30T00:57:55.425Z,6.10
2022-10-30T01:00:27.393Z,5.67
2022-10-30T01:02:58.136Z,5.48
2022-10-30T01:05:30.256Z,5.67
2022-10-30T01:07:57.609Z,5.49
2022-10-30T01:10:25.613Z,5.48
2022-10-30T01:12:56.233Z,5.47
2022-10-30T01:15:30.693Z,5.91
2022-10-30T01:18:21.813Z,5.57
2022-10-30T01:21:08.594Z,5.34
2022-10-30T01:23:49.114Z,5.65
2022-10-30T01:26:29.574Z,5.76
2022-10-30T01:29:13.258Z,5.44
2022-10-30T01:31:58.876Z,3.85
2022-10-30T01:34:39.698Z,3.54
2022-10-30T01:37:16.116Z,3.93
2022-10-30T01:39:43.197Z,4.46
2022-10-30T01:42:30.814Z,4.12
2022-10-30T01:44:58.374Z,3.78
2022-10-30T01:47:38.296Z,4.65
2022-10-30T01:50:26.535Z,4.87
2022-10-30T01:53:03.799Z,5.27
2022-10-30T01:55:42.755Z,4.90
2022-10-30T01:58:18.612Z,4.93
2022-10-30T02:00:52.907Z,4.73
2022-10-30T02:03:20.774Z,5.06
2022-10-30T02:05:51.938Z,5.04
2022-10-30T02:08:20.052Z,5.18
2022-10-30T02:10:51.113Z,5.35
2022-10-30T02:13:18.619Z,5.16
2022-10-30T02:15:48.932Z,5.10
2022-10-30T02:18:16.514Z,5.66
2022-10-30T02:20:45.017Z,5.16
2022-10-30T02:23:12.501Z,5.22
2022-10-30T02:25:39.673Z,5.29
2022-10-30T02:28:06.694Z,5.28
2022-10-30T02:30:34.013Z,5.00
2022-10-30T02:33:01.528Z,5.28
2022-10-30T02:35:30.133Z,5.09
2022-10-30T02:37:59.034Z,5.06
2022-10-30T02:40:26.395Z,5.05
2022-10-30T02:42:54.115Z,4.80
2022-10-30T02:45:21.375Z,4.58
2022-10-30T02:47:48.498Z,5.05
2022-10-30T02:50:15.836Z,4.75
2022-10-30T02:52:42.857Z,4.53
2022-10-30T02:55:11.397Z,4.44
2022-10-30T02:57:38.454Z,4.93
2022-10-30T03:00:06.976Z,4.47
2022-10-30T03:02:34.093Z,4.80
2022-10-30T03:05:01.193Z,4.74
2022-10-30T03:07:28.254Z,4.87
2022-10-30T03:09:55.504Z,4.77
2022-10-30T03:12:24.016Z,4.48
2022-10-30T03:14:51.094Z,4.75
2022-10-30T03:17:18.173Z,4.67
2022-10-30T03:19:45.166Z,4.29
2022-10-30T03:22:12.298Z,4.85
2022-10-30T03:24:39.394Z,4.70
2022-10-30T03:27:06.854Z,4.88
2022-10-30T03:29:35.333Z,4.57
2022-10-30T03:32:02.335Z,4.53
2022-10-30T03:34:29.374Z,4.82
2022-10-30T03:36:56.415Z,4.42
2022-10-30T03:39:23.599Z,4.82
2022-10-30T03:41:50.620Z,4.64
2022-10-30T03:44:17.653Z,4.59
2022-10-30T03:46:46.114Z,4.76
2022-10-30T03:49:13.187Z,4.73
2022-10-30T03:51:40.253Z,4.30
2022-10-30T03:54:07.255Z,5.20
2022-10-30T03:56:34.294Z,4.81
2022-10-30T03:59:01.355Z,4.37
2022-10-30T04:01:28.511Z,4.61
2022-10-30T04:03:57.133Z,4.94
2022-10-30T04:06:24.213Z,4.78
2022-10-30T04:08:51.214Z,4.62
2022-10-30T04:11:18.356Z,4.75
2022-10-30T04:13:45.354Z,4.52
2022-10-30T04:16:12.756Z,4.64
2022-10-30T04:18:39.793Z,4.72
2022-10-30T04:21:08.277Z,5.08
2022-10-30T04:23:35.314Z,4.79
2022-10-30T04:26:02.379Z,4.75
2022-10-30T04:28:29.396Z,4.76
2022-10-30T04:30:56.753Z,4.89
2022-10-30T04:33:23.833Z,4.71
2022-10-30T04:35:50.913Z,4.59
2022-10-30T04:38:19.416Z,4.93
2022-10-30T04:40:46.454Z,4.68
2022-10-30T04:43:14.794Z,4.20
2022-10-30T04:45:42.379Z,4.63
2022-10-30T04:48:13.993Z,4.41
2022-10-30T04:50:41.081Z,4.30
2022-10-30T04:53:12.933Z,4.27
2022-10-30T04:55:42.215Z,5.37
2022-10-30T04:58:09.814Z,5.00
2022-10-30T05:00:36.995Z,4.95
2022-10-30T05:03:04.556Z,5.19
2022-10-30T05:05:32.781Z,5.22
2022-10-30T05:08:00.413Z,4.61
2022-10-30T05:10:28.053Z,4.40
2022-10-30T05:12:56.493Z,4.33
2022-10-30T05:15:23.534Z,4.42
2022-10-30T05:17:52.435Z,4.24
2022-10-30T05:20:19.558Z,4.12
2022-10-30T05:22:47.272Z,4.72
2022-10-30T05:25:14.413Z,4.04
2022-10-30T05:27:41.455Z,4.52
2022-10-30T05:30:11.096Z,4.39
2022-10-30T05:32:38.154Z,4.37
2022-10-30T05:35:05.673Z,4.45
2022-10-30T05:37:32.894Z,4.38
2022-10-30T05:39:59.935Z,4.77
2022-10-30T05:42:26.937Z,4.67
2022-10-30T05:45:02.184Z,4.71
2022-10-30T05:47:31.194Z,4.66
2022-10-30T05:49:58.213Z,4.80
2022-10-30T05:52:25.252Z,4.76
2022-10-30T05:54:52.193Z,4.67
2022-10-30T05:57:19.273Z,4.60
2022-10-30T05:59:46.345Z,4.72
2022-10-30T06:02:13.827Z,4.25
2022-10-30T06:04:42.495Z,4.71
2022-10-30T06:07:10.534Z,4.47
2022-10-30T06:09:37.576Z,4.66
2022-10-30T06:12:05.220Z,4.61
2022-10-30T06:14:32.274Z,4.38
2022-10-30T06:16:59.314Z,4.64
2022-10-30T06:19:26.334Z,4.58
2022-10-30T06:21:54.772Z,4.50
2022-10-30T06:24:21.813Z,4.66
2022-10-30T06:26:48.934Z,5.08
2022-10-30T06:29:15.934Z,4.85
2022-10-30T06:31:42.980Z,4.67
2022-10-30T06:34:10.014Z,4.67
2022-10-30T06:36:37.077Z,4.86
2022-10-30T06:39:05.693Z,4.49
2022-10-30T06:41:32.736Z,4.55
2022-10-30T06:43:59.994Z,4.78
2022-10-30T06:46:30.716Z,4.87
2022-10-30T06:49:00.818Z,4.82
2022-10-30T06:51:28.293Z,4.62
2022-10-30T06:53:55.296Z,4.83
2022-10-30T06:56:23.813Z,4.53
2022-10-30T06:58:50.860Z,5.41
2022-10-30T07:01:17.971Z,4.97
2022-10-30T07:03:45.094Z,4.69
2022-10-30T07:06:12.153Z,4.61
2022-10-30T07:08:39.216Z,4.65
2022-10-30T07:11:06.312Z,4.88
2022-10-30T07:13:34.794Z,5.12
2022-10-30T07:16:01.854Z,5.34
2022-10-30T07:18:28.914Z,5.30
2022-10-30T07:20:56.100Z,5.48
2022-10-30T07:23:23.394Z,5.37
2022-10-30T07:25:50.476Z,5.39
2022-10-30T07:28:17.534Z,5.19
2022-10-30T07:30:45.994Z,5.18
2022-10-30T07:33:13.033Z,5.28
2022-10-30T07:35:40.033Z,5.32
2022-10-30T07:38:11.133Z,4.96
2022-10-30T07:40:38.513Z,4.92
2022-10-30T07:43:06.409Z,5.06
2022-10-30T07:45:33.636Z,5.50
2022-10-30T07:48:02.418Z,5.65
2022-10-30T07:50:29.914Z,6.16
2022-10-30T07:52:57.053Z,6.58
2022-10-30T07:55:24.486Z,6.51
2022-10-30T07:57:51.618Z,7.58
2022-10-30T08:00:19.274Z,7.63
2022-10-30T08:02:50.080Z,8.06
2022-10-30T08:05:18.833Z,8.34
2022-10-30T08:07:47.593Z,8.17
2022-10-30T08:10:15.313Z,8.98
2022-10-30T08:12:42.394Z,8.57
2022-10-30T08:15:10.653Z,9.38
2022-10-30T08:17:42.053Z,8.92
2022-10-30T08:20:10.674Z,8.18
2022-10-30T08:22:46.053Z,7.93
2022-10-30T08:25:13.334Z,7.07
2022-10-30T08:27:48.932Z,7.47
2022-10-30T08:30:15.974Z,7.66
2022-10-30T08:32:43.054Z,8.92
2022-10-30T08:35:10.213Z,9.49
2022-10-30T08:37:37.253Z,9.37
2022-10-30T08:40:07.712Z,9.20
2022-10-30T08:42:34.832Z,7.51
2022-10-30T08:45:02.005Z,7.57
2022-10-30T08:47:29.134Z,8.35
2022-10-30T08:49:56.214Z,7.88
2022-10-30T08:52:23.272Z,7.86
2022-10-30T08:54:50.341Z,8.23
2022-10-30T08:57:18.854Z,8.52
2022-10-30T08:59:45.933Z,8.74
2022-10-30T09:02:13.153Z,8.69
2022-10-30T09:04:40.294Z,8.71
2022-10-30T09:07:10.297Z,9.09
2022-10-30T09:09:39.973Z,8.86
2022-10-30T09:12:07.236Z,8.61
2022-10-30T09:14:35.735Z,8.99
2022-10-30T09:17:02.914Z,8.75
2022-10-30T09:19:30.051Z,9.01
2022-10-30T09:21:57.053Z,9.38
2022-10-30T09:24:25.406Z,9.86
2022-10-30T09:26:52.674Z,9.34
2022-10-30T09:29:19.753Z,9.51
2022-10-30T09:31:48.272Z,9.46
2022-10-30T09:34:15.508Z,9.10
2022-10-30T09:36:42.613Z,9.36
2022-10-30T09:39:09.794Z,8.23
2022-10-30T09:41:57.432Z,8.96
2022-10-30T09:44:40.532Z,8.58
2022-10-30T09:47:23.665Z,9.55
2022-10-30T09:50:03.533Z,9.41
2022-10-30T09:52:42.713Z,9.08
2022-10-30T09:55:28.815Z,9.65
2022-10-30T09:58:13.410Z,9.45
2022-10-30T10:00:50.001Z,9.32
2022-10-30T10:03:53.572Z,9.84
2022-10-30T10:06:23.493Z,9.63
2022-10-30T10:08:56.953Z,9.89
2022-10-30T10:11:32.133Z,10.51
2022-10-30T10:14:07.174Z,10.22
2022-10-30T10:16:38.593Z,10.95
2022-10-30T10:19:15.193Z,10.82
2022-10-30T10:21:48.053Z,10.95
2022-10-30T10:24:21.115Z,10.99
2022-10-30T10:26:50.422Z,10.85
2022-10-30T10:29:32.374Z,12.01
2022-10-30T10:32:46.854Z,10.97
2022-10-30T10:35:34.774Z,11.68
2022-10-30T10:38:12.244Z,12.41
2022-10-30T10:40:52.882Z,11.14
2022-10-30T10:43:36.773Z,12.10
2022-10-30T10:46:30.700Z,12.29
2022-10-30T10:49:16.226Z,12.23
2022-10-30T10:51:52.714Z,12.69
2022-10-30T10:54:27.215Z,13.11
2022-10-30T10:56:57.135Z,13.25
2022-10-30T10:59:34.894Z,13.57
2022-10-30T11:02:28.412Z,13.02
2022-10-30T11:05:05.056Z,13.09
2022-10-30T11:07:39.734Z,12.55
2022-10-30T11:10:13.813Z,12.72
2022-10-30T11:12:41.515Z,12.73
2022-10-30T11:15:29.544Z,13.13
2022-10-30T11:18:01.963Z,13.06
2022-10-30T11:20:37.035Z,13.44
2022-10-30T11:23:43.093Z,13.00
2022-10-30T11:26:28.535Z,12.84
2022-10-30T11:28:58.694Z,13.39
2022-10-30T11:31:27.973Z,13.33
2022-10-30T11:33:55.016Z,13.44
2022-10-30T11:36:25.436Z,14.42
2022-10-30T11:39:09.374Z,13.49
2022-10-30T11:41:37.234Z,13.55
2022-10-30T11:44:05.944Z,13.80
2022-10-30T11:46:35.993Z,13.04
2022-10-30T11:49:03.081Z,13.19
2022-10-30T11:51:36.048Z,12.83
2022-10-30T11:54:07.113Z,12.76
2022-10-30T11:56:35.114Z,13.77
2022-10-30T11:59:04.574Z,12.27
2022-10-30T12:01:36.071Z,11.59
2022-10-30T12:04:25.195Z,11.49
2022-10-30T12:07:08.043Z,12.40
2022-10-30T12:09:45.374Z,13.14
2022-10-30T12:12:23.894Z,12.14
2022-10-30T12:14:52.916Z,11.04
2022-10-30T12:17:22.701Z,10.95
2022-10-30T12:19:54.154Z,10.41
2022-10-30T12:22:30.794Z,8.74
2022-10-30T12:25:03.676Z,8.43
2022-10-30T12:27:35.895Z,7.71
2022-10-30T12:30:09.730Z,7.23
2022-10-30T12:32:46.477Z,8.37
2022-10-30T12:35:31.775Z,9.35
2022-10-30T12:38:03.131Z,9.12
2022-10-30T12:40:41.721Z,9.41
2022-10-30T12:43:19.856Z,9.53
2022-10-30T12:45:51.001Z,9.29
2022-10-30T12:48:25.917Z,9.29
2022-10-30T12:51:09.416Z,8.72
2022-10-30T12:53:44.668Z,8.69
2022-10-30T12:56:19.317Z,8.07
2022-10-30T12:59:01.257Z,9.60
2022-10-30T13:01:35.854Z,8.42
2022-10-30T13:04:13.338Z,10.38
2022-10-30T13:06:51.036Z,10.87
2022-10-30T13:09:27.657Z,10.68
2022-10-30T13:12:03.382Z,11.08
2022-10-30T13:14:38.919Z,10.89
2022-10-30T13:17:11.756Z,11.08
2022-10-30T13:19:40.695Z,11.32
2022-10-30T13:22:16.820Z,10.97
2022-10-30T13:24:59.271Z,11.01
2022-10-30T13:27:41.877Z,12.34
2022-10-30T13:30:15.655Z,11.69
2022-10-30T13:33:03.781Z,11.51
2022-10-30T13:35:41.736Z,11.43
2022-10-30T13:38:34.622Z,11.40
2022-10-30T13:41:14.938Z,11.87
2022-10-30T13:43:54.156Z,12.07
2022-10-30T13:46:39.257Z,11.86
2022-10-30T13:49:22.316Z,11.92
2022-10-30T13:51:59.575Z,11.22
2022-10-30T13:54:37.156Z,11.60
2022-10-30T13:57:16.498Z,11.31
2022-10-30T14:00:02.097Z,10.28
2022-10-30T14:02:43.332Z,10.01
2022-10-30T14:05:31.436Z,9.11
2022-10-30T14:08:08.456Z,9.03
2022-10-30T14:10:45.820Z,8.25
2022-10-30T14:13:23.816Z,8.49
2022-10-30T14:15:59.915Z,8.55
2022-10-30T14:18:30.137Z,8.66
2022-10-30T14:20:59.395Z,9.46
2022-10-30T14:23:34.538Z,9.80
2022-10-30T14:26:21.837Z,10.03
2022-10-30T14:28:54.838Z,9.98
2022-10-30T14:31:36.140Z,10.03
2022-10-30T14:34:03.380Z,9.11
2022-10-30T14:36:49.116Z,10.04
2022-10-30T14:39:40.397Z,10.19
2022-10-30T14:42:15.508Z,10.28
2022-10-30T14:45:08.918Z,10.02
2022-10-30T14:47:51.017Z,9.98
2022-10-30T14:50:38.397Z,9.82
2022-10-30T14:53:45.116Z,9.82
2022-10-30T14:56:29.736Z,9.41
2022-10-30T14:59:20.379Z,9.84
2022-10-30T15:02:00.089Z,9.52
2022-10-30T15:04:44.996Z,9.14
2022-10-30T15:07:26.536Z,9.03
2022-10-30T15:10:11.398Z,9.74
2022-10-30T15:13:02.197Z,9.83
2022-10-30T15:15:31.540Z,9.57
2022-10-30T15:18:04.238Z,9.38
2022-10-30T15:20:41.935Z,9.31
2022-10-30T15:23:14.298Z,9.14
2022-10-30T15:25:47.639Z,9.33
2022-10-30T15:28:19.443Z,9.62
2022-10-30T15:31:00.376Z,10.34
2022-10-30T15:33:28.976Z,10.61
2022-10-30T15:35:58.497Z,10.16
2022-10-30T15:38:25.918Z,10.81
2022-10-30T15:40:58.719Z,10.28
2022-10-30T15:43:31.888Z,10.65
2022-10-30T15:46:00.160Z,10.73
2022-10-30T15:48:30.687Z,10.89
2022-10-30T15:51:03.017Z,11.50
2022-10-30T15:53:38.398Z,11.56
2022-10-30T15:56:11.824Z,11.48
2022-10-30T15:58:44.336Z,11.52
2022-10-30T16:01:26.016Z,11.34
2022-10-30T16:03:54.598Z,11.09
2022-10-30T16:06:25.988Z,10.86
2022-10-30T16:08:53.216Z,10.93
2022-10-30T16:11:21.450Z,11.51
2022-10-30T16:13:50.058Z,11.90
2022-10-30T16:16:22.849Z,13.15
2022-10-30T16:18:51.736Z,13.10
2022-10-30T16:21:24.396Z,11.56
2022-10-30T16:23:54.900Z,12.58
2022-10-30T16:26:27.437Z,12.24
2022-10-30T16:28:54.556Z,11.82
2022-10-30T16:31:22.218Z,10.34
2022-10-30T16:33:50.356Z,10.52
2022-10-30T16:36:19.997Z,10.69
2022-10-30T16:38:51.015Z,11.44
2022-10-30T16:41:24.251Z,10.76
2022-10-30T16:44:20.237Z,11.91
2022-10-30T16:46:51.680Z,12.71
2022-10-30T16:49:22.258Z,12.53
2022-10-30T16:51:57.177Z,11.34
2022-10-30T16:54:30.335Z,11.94
2022-10-30T16:57:00.316Z,12.15
2022-10-30T16:59:35.860Z,11.92
2022-10-30T17:02:06.965Z,12.09
2022-10-30T17:04:35.645Z,12.45
2022-10-30T17:07:15.462Z,12.87
2022-10-30T17:09:46.036Z,12.26
2022-10-30T17:12:18.216Z,11.60
2022-10-30T17:14:52.956Z,11.70
2022-10-30T17:17:32.138Z,12.10
2022-10-30T17:20:05.638Z,11.54
2022-10-30T17:22:33.578Z,12.42
2022-10-30T17:25:14.558Z,13.30
2022-10-30T17:27:47.208Z,13.21
2022-10-30T17:30:41.775Z,12.76
2022-10-30T17:33:34.561Z,11.29
2022-10-30T17:36:01.998Z,12.64
2022-10-30T17:38:29.108Z,12.56
2022-10-30T17:40:57.799Z,11.66
2022-10-30T17:43:29.018Z,11.94
2022-10-30T17:45:56.156Z,12.25
2022-10-30T17:48:27.096Z,12.74
2022-10-30T17:50:54.421Z,12.21
2022-10-30T17:53:24.297Z,11.91
2022-10-30T17:56:00.601Z,12.47
2022-10-30T17:58:27.700Z,12.41
2022-10-30T18:00:54.851Z,11.70
2022-10-30T18:03:21.916Z,11.59
2022-10-30T18:05:49.279Z,11.96
2022-10-30T18:08:16.337Z,11.99
2022-10-30T18:10:43.418Z,11.70
2022-10-30T18:13:12.958Z,11.50
2022-10-30T18:15:44.136Z,11.20
2022-10-30T18:18:12.272Z,11.21
2022-10-30T18:20:39.396Z,11.11
2022-10-30T18:23:46.439Z,11.23
2022-10-30T18:26:06.439Z,11.31
2022-10-30T18:28:35.077Z,11.55
2022-10-30T18:31:02.157Z,10.61
2022-10-30T18:33:29.196Z,10.37
2022-10-30T18:35:59.097Z,10.41
2022-10-30T18:38:26.238Z,10.62
2022-10-30T18:40:53.742Z,10.56
2022-10-30T18:43:20.868Z,10.73
2022-10-30T18:45:49.397Z,10.80
2022-10-30T18:48:16.518Z,10.04
2022-10-30T18:50:43.597Z,10.13
2022-10-30T18:53:16.716Z,10.10
2022-10-30T18:55:44.943Z,11.15
2022-10-30T18:58:12.437Z,10.43
2022-10-30T19:01:09.982Z,10.64
2022-10-30T19:03:29.278Z,10.00
2022-10-30T19:05:56.376Z,10.04
2022-10-30T19:08:23.537Z,10.79
2022-10-30T19:10:50.606Z,10.32
2022-10-30T19:13:20.559Z,9.59
2022-10-30T19:15:50.098Z,7.61
2022-10-30T19:18:17.936Z,7.19
2022-10-30T19:23:33.897Z,7.05
2022-10-30T19:26:01.206Z,5.68
2022-10-30T19:28:28.416Z,6.27
2022-10-30T19:30:55.458Z,6.64
2022-10-30T19:33:24.235Z,6.69
2022-10-30T19:35:57.498Z,6.83
2022-10-30T19:38:24.719Z,6.69
2022-10-30T19:40:52.056Z,6.73
2022-10-30T19:43:19.517Z,7.21
2022-10-30T19:45:49.042Z,7.09
2022-10-30T19:48:40.712Z,7.24
2022-10-30T19:51:09.335Z,7.43
2022-10-30T19:53:36.455Z,7.59
2022-10-30T19:56:03.977Z,7.34
2022-10-30T19:58:31.077Z,7.59
2022-10-30T20:00:58.231Z,7.65
2022-10-30T20:03:25.499Z,7.83
2022-10-30T20:05:52.559Z,7.94
2022-10-30T20:08:22.883Z,7.84
2022-10-30T20:10:52.517Z,8.04
2022-10-30T20:13:20.120Z,7.94
2022-10-30T20:15:47.416Z,8.29
2022-10-30T20:18:16.840Z,7.87
2022-10-30T20:20:49.604Z,7.57
2022-10-30T20:23:17.055Z,7.75
2022-10-30T20:25:46.338Z,7.90
2022-10-30T20:28:23.789Z,9.14
2022-10-30T20:30:51.916Z,9.78
2022-10-30T20:33:19.822Z,10.34
2022-10-30T20:35:48.316Z,10.68
2022-10-30T20:38:18.547Z,10.03
2022-10-30T20:40:48.402Z,9.18
2022-10-30T20:43:18.937Z,9.38
2022-10-30T20:45:47.519Z,9.66
2022-10-30T20:48:15.056Z,9.83
2022-10-30T20:50:43.780Z,9.31
2022-10-30T20:53:14.016Z,8.84
2022-10-30T20:55:41.240Z,8.53
2022-10-30T20:58:10.317Z,9.05
2022-10-30T21:00:38.496Z,9.69
2022-10-30T21:03:06.879Z,9.84
2022-10-30T21:05:44.427Z,9.79
2022-10-30T21:08:13.096Z,9.76
2022-10-30T21:10:41.528Z,9.52
2022-10-30T21:13:11.360Z,9.14
2022-10-30T21:15:39.719Z,8.76
2022-10-30T21:18:08.825Z,8.29
2022-10-30T21:20:36.337Z,8.12
2022-10-30T21:23:03.596Z,8.48
2022-10-30T21:25:30.718Z,8.38
2022-10-30T21:27:59.302Z,9.02
2022-10-30T21:30:28.641Z,8.73
2022-10-30T21:32:55.717Z,8.30
2022-10-30T21:35:22.860Z,8.56
2022-10-30T21:37:50.178Z,7.80
2022-10-30T21:40:17.819Z,7.95
2022-10-30T21:42:47.836Z,7.92
2022-10-30T21:45:15.095Z,7.99
2022-10-30T21:47:43.556Z,8.66
2022-10-30T21:50:12.627Z,8.31
2022-10-30T21:52:40.318Z,8.30
2022-10-30T21:55:08.363Z,8.01
2022-10-30T21:57:35.957Z,7.80
2022-10-30T22:00:05.774Z,7.76
2022-10-30T22:02:35.898Z,7.70
2022-10-30T22:05:05.056Z,7.81
2022-10-30T22:07:32.156Z,8.56
2022-10-30T22:09:59.216Z,8.70
2022-10-30T22:12:26.318Z,8.04
2022-10-30T22:14:53.456Z,8.14
2022-10-30T22:17:20.555Z,7.99
2022-10-30T22:19:47.765Z,8.03
2022-10-30T22:22:16.336Z,8.03
2022-10-30T22:24:43.459Z,6.29
2022-10-30T22:27:10.676Z,5.82
2022-10-30T22:29:37.998Z,5.85
2022-10-30T22:32:05.216Z,6.46
2022-10-30T22:34:32.356Z,6.16
2022-10-30T22:36:59.439Z,6.84
2022-10-30T22:39:27.976Z,6.51
2022-10-30T22:41:55.139Z,6.75
2022-10-30T22:44:22.405Z,6.73
2022-10-30T22:46:49.617Z,7.59
2022-10-30T22:49:16.876Z,8.11
2022-10-30T22:51:44.119Z,8.25
2022-10-30T22:54:12.537Z,8.10
2022-10-30T22:56:41.917Z,8.68
2022-10-30T22:59:12.521Z,8.95
2022-10-30T23:01:41.360Z,8.52
2022-10-30T23:04:11.298Z,8.53
2022-10-30T23:06:38.599Z,8.19
2022-10-30T23:09:07.909Z,8.44
2022-10-30T23:11:35.317Z,8.30
2022-10-30T23:14:03.976Z,8.10
2022-10-30T23:16:31.560Z,7.76
2022-10-30T23:19:00.456Z,8.29
2022-10-30T23:21:29.809Z,8.30
2022-10-30T23:23:57.318Z,7.74
2022-10-30T23:26:27.297Z,8.17
2022-10-30T23:28:55.615Z,8.02
2022-10-30T23:31:26.736Z,7.93
2022-10-30T23:33:56.375Z,8.17
2022-10-30T23:36:24.597Z,7.88
2022-10-30T23:38:52.536Z,7.91
2022-10-30T23:41:19.876Z,7.68
2022-10-30T23:43:46.976Z,7.58
2022-10-30T23:46:14.076Z,7.57
2022-10-30T23:48:42.612Z,8.00
2022-10-30T23:51:10.397Z,8.07
2022-10-30T23:53:37.436Z,7.76
2022-10-30T23:56:05.398Z,8.08
2022-10-30T23:58:32.999Z,7.86
